sensor_id;sensor_type;location;lat;lon;timestamp;pressure;altitude;pressure_sealevel;temperature;humidity
61961;BME280;47923;42.506;24.192;2022-09-28T00:01:48;94224.66;;;7.88;98.93
61961;BME280;47923;42.506;24.192;2022-09-28T00:04:14;94144.56;;;7.67;98.84
61961;BME280;47923;42.506;24.192;2022-09-28T00:06:39;94406.44;;;9.11;99.04
61961;BME280;47923;42.506;24.192;2022-09-28T00:09:05;93961.78;;;6.30;99.21
61961;BME280;47923;42.506;24.192;2022-09-28T00:11:30;94111.34;;;7.45;100.00
61961;BME280;47923;42.506;24.192;2022-09-28T00:13:58;94065.81;;;7.18;100.00
61961;BME280;47923;42.506;24.192;2022-09-28T00:16:30;94526.50;;;10.11;99.76
61961;BME280;47923;42.506;24.192;2022-09-28T00:18:57;94097.97;;;7.11;99.96
61961;BME280;47923;42.506;24.192;2022-09-28T00:21:28;94153.38;;;7.64;99.58
61961;BME280;47923;42.506;24.192;2022-09-28T00:23:56;94500.94;;;9.91;99.40
61961;BME280;47923;42.506;24.192;2022-09-28T00:31:50;94568.03;;;9.92;99.21
61961;BME280;47923;42.506;24.192;2022-09-28T00:34:17;94496.31;;;9.88;100.00
61961;BME280;47923;42.506;24.192;2022-09-28T00:36:44;94502.09;;;9.90;99.48
61961;BME280;47923;42.506;24.192;2022-09-28T00:39:11;94503.97;;;9.82;99.27
61961;BME280;47923;42.506;24.192;2022-09-28T00:41:37;94070.94;;;6.93;99.50
61961;BME280;47923;42.506;24.192;2022-09-28T00:46:48;94198.31;;;7.67;99.88
61961;BME280;47923;42.506;24.192;2022-09-28T00:49:16;94326.47;;;8.71;99.85
61961;BME280;47923;42.506;24.192;2022-09-28T00:51:44;94464.47;;;9.53;100.00
61961;BME280;47923;42.506;24.192;2022-09-28T00:54:11;94018.69;;;6.47;99.68
61961;BME280;47923;42.506;24.192;2022-09-28T00:56:41;94485.28;;;9.52;99.63
61961;BME280;47923;42.506;24.192;2022-09-28T00:59:08;94460.47;;;9.29;99.63
61961;BME280;47923;42.506;24.192;2022-09-28T01:01:35;94503.38;;;9.48;99.37
61961;BME280;47923;42.506;24.192;2022-09-28T01:04:01;94502.97;;;9.50;99.83
61961;BME280;47923;42.506;24.192;2022-09-28T01:06:31;94507.94;;;9.44;100.00
61961;BME280;47923;42.506;24.192;2022-09-28T01:08:59;94337.31;;;8.37;99.84
61961;BME280;47923;42.506;24.192;2022-09-28T01:11:28;94146.28;;;7.08;100.00
61961;BME280;47923;42.506;24.192;2022-09-28T01:13:56;94188.38;;;7.34;99.81
61961;BME280;47923;42.506;24.192;2022-09-28T01:24:42;94432.84;;;8.95;99.42
61961;BME280;47923;42.506;24.192;2022-09-28T01:27:24;94505.94;;;9.34;100.00
61961;BME280;47923;42.506;24.192;2022-09-28T01:30:03;94488.81;;;9.12;100.00
61961;BME280;47923;42.506;24.192;2022-09-28T01:35:25;94059.38;;;6.22;100.00
61961;BME280;47923;42.506;24.192;2022-09-28T01:37:56;94387.78;;;8.10;100.00
61961;BME280;47923;42.506;24.192;2022-09-28T01:40:25;94167.19;;;6.91;99.85
61961;BME280;47923;42.506;24.192;2022-09-28T01:43:13;94381.47;;;7.95;100.00
61961;BME280;47923;42.506;24.192;2022-09-28T01:45:44;94283.13;;;7.61;100.00
61961;BME280;47923;42.506;24.192;2022-09-28T01:48:16;94366.72;;;8.16;100.00
61961;BME280;47923;42.506;24.192;2022-09-28T01:50:44;94533.09;;;9.14;100.00
61961;BME280;47923;42.506;24.192;2022-09-28T01:53:18;94298.22;;;7.39;100.00
61961;BME280;47923;42.506;24.192;2022-09-28T01:55:55;94324.09;;;7.84;100.00
61961;BME280;47923;42.506;24.192;2022-09-28T01:58:27;94235.44;;;7.20;100.00
61961;BME280;47923;42.506;24.192;2022-09-28T02:01:20;94525.31;;;9.06;100.00
61961;BME280;47923;42.506;24.192;2022-09-28T02:03:47;94534.97;;;9.10;100.00
61961;BME280;47923;42.506;24.192;2022-09-28T02:06:19;94512.41;;;8.85;99.81
61961;BME280;47923;42.506;24.192;2022-09-28T02:08:55;93766.09;;;3.90;98.55
61961;BME280;47923;42.506;24.192;2022-09-28T02:11:23;94529.75;;;8.88;99.57
61961;BME280;47923;42.506;24.192;2022-09-28T02:14:08;94262.72;;;6.92;100.00
61961;BME280;47923;42.506;24.192;2022-09-28T02:16:39;94536.66;;;8.85;100.00
61961;BME280;47923;42.506;24.192;2022-09-28T02:19:26;94545.06;;;8.80;99.47
61961;BME280;47923;42.506;24.192;2022-09-28T02:24:26;94546.03;;;8.65;99.86
61961;BME280;47923;42.506;24.192;2022-09-28T02:26:54;94456.44;;;8.00;100.00
61961;BME280;47923;42.506;24.192;2022-09-28T02:29:22;94152.63;;;6.06;99.91
61961;BME280;47923;42.506;24.192;2022-09-28T02:31:49;94126.75;;;5.91;99.57
61961;BME280;47923;42.506;24.192;2022-09-28T02:34:15;94546.38;;;8.60;99.61
61961;BME280;47923;42.506;24.192;2022-09-28T02:36:40;94546.16;;;8.42;99.53
61961;BME280;47923;42.506;24.192;2022-09-28T02:39:12;94207.81;;;6.33;99.45
61961;BME280;47923;42.506;24.192;2022-09-28T02:50:29;94523.81;;;8.38;100.00
61961;BME280;47923;42.506;24.192;2022-09-28T03:00:53;94162.47;;;5.98;99.98
61961;BME280;47923;42.506;24.192;2022-09-28T03:03:32;94507.88;;;8.25;100.00
61961;BME280;47923;42.506;24.192;2022-09-28T03:08:39;94536.06;;;8.35;100.00
61961;BME280;47923;42.506;24.192;2022-09-28T03:11:13;94490.81;;;8.14;100.00
61961;BME280;47923;42.506;24.192;2022-09-28T03:13:41;94409.66;;;7.48;100.00
61961;BME280;47923;42.506;24.192;2022-09-28T03:16:15;94561.53;;;8.41;100.00
61961;BME280;47923;42.506;24.192;2022-09-28T03:18:42;94565.69;;;8.35;100.00
61961;BME280;47923;42.506;24.192;2022-09-28T03:21:10;94431.25;;;7.56;99.81
61961;BME280;47923;42.506;24.192;2022-09-28T03:23:36;94348.94;;;6.87;100.00
61961;BME280;47923;42.506;24.192;2022-09-28T03:26:02;94564.19;;;8.38;100.00
61961;BME280;47923;42.506;24.192;2022-09-28T03:28:28;94255.38;;;6.36;100.00
61961;BME280;47923;42.506;24.192;2022-09-28T03:30:54;94098.34;;;5.40;100.00
61961;BME280;47923;42.506;24.192;2022-09-28T03:33:19;94046.19;;;5.08;100.00
61961;BME280;47923;42.506;24.192;2022-09-28T03:35:46;94546.69;;;8.24;100.00
61961;BME280;47923;42.506;24.192;2022-09-28T03:38:12;94522.78;;;8.19;99.85
61961;BME280;47923;42.506;24.192;2022-09-28T03:40:38;94555.25;;;8.34;99.92
61961;BME280;47923;42.506;24.192;2022-09-28T03:43:04;94410.50;;;7.26;100.00
61961;BME280;47923;42.506;24.192;2022-09-28T03:45:29;94570.22;;;8.31;100.00
61961;BME280;47923;42.506;24.192;2022-09-28T03:47:55;94447.09;;;7.61;100.00
61961;BME280;47923;42.506;24.192;2022-09-28T03:50:20;94463.31;;;7.68;100.00
61961;BME280;47923;42.506;24.192;2022-09-28T03:52:46;94561.06;;;8.36;100.00
61961;BME280;47923;42.506;24.192;2022-09-28T03:55:11;94264.03;;;6.26;99.94
61961;BME280;47923;42.506;24.192;2022-09-28T03:57:37;94406.59;;;7.20;99.21
61961;BME280;47923;42.506;24.192;2022-09-28T04:00:04;93997.78;;;4.51;98.91
61961;BME280;47923;42.506;24.192;2022-09-28T04:02:29;94566.59;;;8.20;98.75
61961;BME280;47923;42.506;24.192;2022-09-28T04:04:55;94546.66;;;7.94;98.50
61961;BME280;47923;42.506;24.192;2022-09-28T04:07:21;94451.00;;;7.14;98.26
61961;BME280;47923;42.506;24.192;2022-09-28T04:09:46;94571.38;;;8.03;98.55
61961;BME280;47923;42.506;24.192;2022-09-28T04:12:12;94048.31;;;4.56;99.05
61961;BME280;47923;42.506;24.192;2022-09-28T04:14:38;94260.97;;;5.82;99.02
61961;BME280;47923;42.506;24.192;2022-09-28T04:17:03;94529.06;;;7.74;99.75
61961;BME280;47923;42.506;24.192;2022-09-28T04:19:30;94583.84;;;8.15;99.87
61961;BME280;47923;42.506;24.192;2022-09-28T04:21:56;94151.91;;;5.40;98.92
61961;BME280;47923;42.506;24.192;2022-09-28T04:24:21;94543.25;;;7.97;99.00
61961;BME280;47923;42.506;24.192;2022-09-28T04:26:47;94509.59;;;7.81;98.71
61961;BME280;47923;42.506;24.192;2022-09-28T04:29:13;94235.91;;;5.94;98.49
61961;BME280;47923;42.506;24.192;2022-09-28T04:31:50;94582.59;;;8.36;99.13
61961;BME280;47923;42.506;24.192;2022-09-28T04:34:20;94078.47;;;5.18;98.37
61961;BME280;47923;42.506;24.192;2022-09-28T04:36:46;94239.91;;;6.26;98.29
61961;BME280;47923;42.506;24.192;2022-09-28T04:39:13;94591.59;;;8.47;97.30
61961;BME280;47923;42.506;24.192;2022-09-28T04:41:40;94256.28;;;6.21;96.99
61961;BME280;47923;42.506;24.192;2022-09-28T04:44:06;94599.81;;;8.57;97.50
61961;BME280;47923;42.506;24.192;2022-09-28T04:46:32;94142.06;;;5.67;96.99
61961;BME280;47923;42.506;24.192;2022-09-28T04:48:57;94193.00;;;6.17;96.60
61961;BME280;47923;42.506;24.192;2022-09-28T04:51:23;94088.09;;;5.69;97.40
61961;BME280;47923;42.506;24.192;2022-09-28T04:53:48;94555.09;;;8.83;97.85
61961;BME280;47923;42.506;24.192;2022-09-28T04:56:15;93961.84;;;4.94;96.92
61961;BME280;47923;42.506;24.192;2022-09-28T04:58:41;94010.59;;;5.57;96.83
61961;BME280;47923;42.506;24.192;2022-09-28T05:01:10;94295.63;;;7.46;96.83
61961;BME280;47923;42.506;24.192;2022-09-28T05:03:36;94595.56;;;9.68;96.74
61961;BME280;47923;42.506;24.192;2022-09-28T05:06:02;94599.97;;;9.87;95.50
61961;BME280;47923;42.506;24.192;2022-09-28T05:08:28;94167.72;;;7.38;95.82
61961;BME280;47923;42.506;24.192;2022-09-28T05:11:00;94587.50;;;10.99;94.99
61961;BME280;47923;42.506;24.192;2022-09-28T05:13:27;94593.81;;;11.46;86.89
61961;BME280;47923;42.506;24.192;2022-09-28T05:15:54;94204.91;;;9.56;83.23
61961;BME280;47923;42.506;24.192;2022-09-28T05:18:20;94606.94;;;12.40;79.72
61961;BME280;47923;42.506;24.192;2022-09-28T05:20:45;94300.66;;;10.87;77.31
61961;BME280;47923;42.506;24.192;2022-09-28T05:23:12;94539.47;;;12.85;75.93
61961;BME280;47923;42.506;24.192;2022-09-28T05:25:38;94609.06;;;15.37;68.85
61961;BME280;47923;42.506;24.192;2022-09-28T05:28:05;94358.31;;;16.58;58.30
61961;BME280;47923;42.506;24.192;2022-09-28T05:30:30;94289.41;;;18.90;48.30
61961;BME280;47923;42.506;24.192;2022-09-28T05:32:56;94220.63;;;20.32;43.66
61961;BME280;47923;42.506;24.192;2022-09-28T05:35:21;94342.72;;;22.58;39.39
61961;BME280;47923;42.506;24.192;2022-09-28T05:37:47;94434.63;;;24.74;36.30
61961;BME280;47923;42.506;24.192;2022-09-28T05:40:13;94371.13;;;24.74;35.27
61961;BME280;47923;42.506;24.192;2022-09-28T05:42:40;94382.84;;;25.48;33.46
61961;BME280;47923;42.506;24.192;2022-09-28T05:45:06;94598.69;;;28.13;32.51
61961;BME280;47923;42.506;24.192;2022-09-28T05:47:39;94468.59;;;28.38;30.67
61961;BME280;47923;42.506;24.192;2022-09-28T05:50:06;94589.59;;;28.93;30.93
61961;BME280;47923;42.506;24.192;2022-09-28T05:52:31;94365.81;;;26.78;30.58
61961;BME280;47923;42.506;24.192;2022-09-28T05:54:57;94444.41;;;28.01;29.88
61961;BME280;47923;42.506;24.192;2022-09-28T05:57:23;94426.63;;;29.23;27.62
61961;BME280;47923;42.506;24.192;2022-09-28T05:59:48;94563.50;;;29.55;29.23
61961;BME280;47923;42.506;24.192;2022-09-28T06:02:14;94365.66;;;28.86;27.45
61961;BME280;47923;42.506;24.192;2022-09-28T06:04:39;94329.84;;;29.16;28.09
61961;BME280;47923;42.506;24.192;2022-09-28T06:07:05;94521.75;;;30.22;27.33
61961;BME280;47923;42.506;24.192;2022-09-28T06:09:30;94325.75;;;29.23;28.31
61961;BME280;47923;42.506;24.192;2022-09-28T06:11:57;94454.50;;;30.60;26.33
61961;BME280;47923;42.506;24.192;2022-09-28T06:14:26;94589.25;;;32.50;25.21
61961;BME280;47923;42.506;24.192;2022-09-28T06:16:51;94541.16;;;32.57;25.09
61961;BME280;47923;42.506;24.192;2022-09-28T06:19:17;94404.75;;;31.22;25.07
61961;BME280;47923;42.506;24.192;2022-09-28T06:21:42;94574.03;;;33.56;24.99
61961;BME280;47923;42.506;24.192;2022-09-28T06:24:08;94575.84;;;33.35;24.09
61961;BME280;47923;42.506;24.192;2022-09-28T06:26:33;94385.63;;;31.37;24.74
61961;BME280;47923;42.506;24.192;2022-09-28T06:28:59;94336.00;;;30.47;25.54
61961;BME280;47923;42.506;24.192;2022-09-28T06:31:25;94567.81;;;30.01;27.76
61961;BME280;47923;42.506;24.192;2022-09-28T06:33:51;94407.41;;;28.92;28.27
61961;BME280;47923;42.506;24.192;2022-09-28T06:36:17;94611.94;;;31.17;27.35
61961;BME280;47923;42.506;24.192;2022-09-28T06:38:45;94592.63;;;31.71;26.45
61961;BME280;47923;42.506;24.192;2022-09-28T06:41:11;94317.72;;;31.29;25.39
61961;BME280;47923;42.506;24.192;2022-09-28T06:43:39;94598.97;;;33.16;24.46
61961;BME280;47923;42.506;24.192;2022-09-28T06:46:07;94364.75;;;32.41;23.91
61961;BME280;47923;42.506;24.192;2022-09-28T06:48:34;94464.53;;;33.92;22.60
61961;BME280;47923;42.506;24.192;2022-09-28T06:50:59;94615.28;;;34.84;22.16
61961;BME280;47923;42.506;24.192;2022-09-28T06:53:26;94555.56;;;33.29;23.38
61961;BME280;47923;42.506;24.192;2022-09-28T06:55:53;94596.13;;;32.97;23.77
61961;BME280;47923;42.506;24.192;2022-09-28T06:58:19;94561.56;;;33.57;23.61
61961;BME280;47923;42.506;24.192;2022-09-28T07:00:46;94542.00;;;35.14;22.30
61961;BME280;47923;42.506;24.192;2022-09-28T07:03:20;94452.25;;;34.21;20.99
61961;BME280;47923;42.506;24.192;2022-09-28T07:05:48;94519.22;;;36.28;20.23
61961;BME280;47923;42.506;24.192;2022-09-28T07:08:15;94598.63;;;38.14;18.57
61961;BME280;47923;42.506;24.192;2022-09-28T07:10:42;94597.75;;;37.68;18.45
61961;BME280;47923;42.506;24.192;2022-09-28T07:13:08;94479.81;;;37.21;18.89
61961;BME280;47923;42.506;24.192;2022-09-28T07:15:34;94392.81;;;38.07;18.91
61961;BME280;47923;42.506;24.192;2022-09-28T07:18:03;94233.34;;;36.74;18.65
61961;BME280;47923;42.506;24.192;2022-09-28T07:20:30;94293.56;;;38.08;18.63
61961;BME280;47923;42.506;24.192;2022-09-28T07:22:59;94578.41;;;39.81;17.82
61961;BME280;47923;42.506;24.192;2022-09-28T07:25:25;94592.53;;;39.81;17.97
61961;BME280;47923;42.506;24.192;2022-09-28T07:28:03;94533.19;;;38.77;19.30
61961;BME280;47923;42.506;24.192;2022-09-28T07:30:33;94438.59;;;40.07;16.89
61961;BME280;47923;42.506;24.192;2022-09-28T07:33:00;94565.22;;;41.87;15.97
61961;BME280;47923;42.506;24.192;2022-09-28T07:35:26;94462.47;;;39.56;17.04
61961;BME280;47923;42.506;24.192;2022-09-28T07:38:03;94482.06;;;38.04;18.07
61961;BME280;47923;42.506;24.192;2022-09-28T07:40:30;94546.06;;;39.26;16.99
61961;BME280;47923;42.506;24.192;2022-09-28T07:43:15;94488.59;;;37.02;18.86
61961;BME280;47923;42.506;24.192;2022-09-28T07:45:47;94294.66;;;36.75;17.91
61961;BME280;47923;42.506;24.192;2022-09-28T07:48:14;94583.63;;;40.24;17.29
61961;BME280;47923;42.506;24.192;2022-09-28T07:50:51;94545.06;;;38.53;16.90
61961;BME280;47923;42.506;24.192;2022-09-28T07:53:22;94204.59;;;36.45;16.47
61961;BME280;47923;42.506;24.192;2022-09-28T07:55:53;94583.75;;;39.06;17.07
61961;BME280;47923;42.506;24.192;2022-09-28T07:58:19;94537.78;;;39.20;17.46
61961;BME280;47923;42.506;24.192;2022-09-28T08:00:48;94564.63;;;38.74;16.41
61961;BME280;47923;42.506;24.192;2022-09-28T08:03:18;94547.69;;;38.12;16.18
61961;BME280;47923;42.506;24.192;2022-09-28T08:05:44;94552.03;;;38.36;15.97
61961;BME280;47923;42.506;24.192;2022-09-28T08:08:11;94163.75;;;35.49;16.09
61961;BME280;47923;42.506;24.192;2022-09-28T08:10:37;94583.06;;;38.75;15.76
61961;BME280;47923;42.506;24.192;2022-09-28T08:13:04;94470.00;;;38.73;15.25
61961;BME280;47923;42.506;24.192;2022-09-28T08:15:33;94567.03;;;39.56;15.26
61961;BME280;47923;42.506;24.192;2022-09-28T08:18:02;94252.16;;;37.10;14.92
61961;BME280;47923;42.506;24.192;2022-09-28T08:20:28;94395.34;;;37.21;15.23
61961;BME280;47923;42.506;24.192;2022-09-28T08:23:12;94610.88;;;38.25;15.58
61961;BME280;47923;42.506;24.192;2022-09-28T08:25:37;94486.16;;;37.73;16.06
61961;BME280;47923;42.506;24.192;2022-09-28T08:28:04;94601.31;;;38.51;16.31
61961;BME280;47923;42.506;24.192;2022-09-28T08:30:32;94496.84;;;37.67;16.14
61961;BME280;47923;42.506;24.192;2022-09-28T08:32:58;94159.91;;;36.18;16.73
61961;BME280;47923;42.506;24.192;2022-09-28T08:35:23;94581.84;;;40.37;14.83
61961;BME280;47923;42.506;24.192;2022-09-28T08:37:50;94590.88;;;39.77;14.69
61961;BME280;47923;42.506;24.192;2022-09-28T08:40:23;94460.53;;;39.33;15.08
61961;BME280;47923;42.506;24.192;2022-09-28T08:42:52;94565.78;;;40.64;14.06
61961;BME280;47923;42.506;24.192;2022-09-28T08:45:27;94294.19;;;37.84;14.72
61961;BME280;47923;42.506;24.192;2022-09-28T08:48:29;94574.53;;;39.05;15.24
61961;BME280;47923;42.506;24.192;2022-09-28T08:53:54;94276.50;;;36.33;16.30
61961;BME280;47923;42.506;24.192;2022-09-28T08:59:02;94605.06;;;38.84;15.82
61961;BME280;47923;42.506;24.192;2022-09-28T09:01:48;94522.47;;;37.99;15.31
61961;BME280;47923;42.506;24.192;2022-09-28T09:04:16;94536.22;;;38.64;15.24
61961;BME280;47923;42.506;24.192;2022-09-28T09:07:00;94440.09;;;37.32;14.66
61961;BME280;47923;42.506;24.192;2022-09-28T09:09:51;94574.16;;;40.04;15.09
61961;BME280;47923;42.506;24.192;2022-09-28T09:17:46;94576.94;;;41.04;13.11
61961;BME280;47923;42.506;24.192;2022-09-28T09:23:11;94415.72;;;39.37;14.53
61961;BME280;47923;42.506;24.192;2022-09-28T09:25:47;94365.72;;;38.04;14.46
61961;BME280;47923;42.506;24.192;2022-09-28T09:31:07;94575.47;;;39.00;15.80
61961;BME280;47923;42.506;24.192;2022-09-28T09:41:37;94530.00;;;40.34;13.70
61961;BME280;47923;42.506;24.192;2022-09-28T09:44:32;94575.94;;;37.61;16.40
61961;BME280;47923;42.506;24.192;2022-09-28T09:47:08;94469.97;;;36.34;16.58
61961;BME280;47923;42.506;24.192;2022-09-28T09:57:20;94449.19;;;36.66;16.70
61961;BME280;47923;42.506;24.192;2022-09-28T09:59:47;94500.63;;;37.10;16.97
61961;BME280;47923;42.506;24.192;2022-09-28T10:02:30;94489.38;;;37.77;16.38
61961;BME280;47923;42.506;24.192;2022-09-28T10:05:03;94489.56;;;36.47;17.10
61961;BME280;47923;42.506;24.192;2022-09-28T10:07:55;94566.25;;;37.93;16.07
61961;BME280;47923;42.506;24.192;2022-09-28T10:12:52;94293.59;;;35.21;16.66
61961;BME280;47923;42.506;24.192;2022-09-28T10:15:25;94331.66;;;34.00;18.32
61961;BME280;47923;42.506;24.192;2022-09-28T10:17:52;94303.69;;;33.29;18.72
61961;BME280;47923;42.506;24.192;2022-09-28T10:20:19;94528.81;;;35.22;18.22
61961;BME280;47923;42.506;24.192;2022-09-28T10:22:45;94560.84;;;35.53;18.40
61961;BME280;47923;42.506;24.192;2022-09-28T10:25:11;94511.22;;;35.22;18.94
61961;BME280;47923;42.506;24.192;2022-09-28T10:27:40;94271.22;;;33.78;18.68
61961;BME280;47923;42.506;24.192;2022-09-28T10:32:37;94470.84;;;35.59;17.89
61961;BME280;47923;42.506;24.192;2022-09-28T10:40:53;94540.22;;;35.37;17.47
61961;BME280;47923;42.506;24.192;2022-09-28T10:43:25;94484.56;;;36.04;17.12
61961;BME280;47923;42.506;24.192;2022-09-28T10:46:05;94542.41;;;36.70;15.86
61961;BME280;47923;42.506;24.192;2022-09-28T10:51:10;94309.13;;;34.32;16.23
61961;BME280;47923;42.506;24.192;2022-09-28T10:53:38;94490.38;;;35.85;16.02
61961;BME280;47923;42.506;24.192;2022-09-28T10:56:06;94213.81;;;32.41;17.43
61961;BME280;47923;42.506;24.192;2022-09-28T10:58:42;94485.59;;;34.25;17.63
61961;BME280;47923;42.506;24.192;2022-09-28T11:01:19;94447.53;;;34.29;17.72
61961;BME280;47923;42.506;24.192;2022-09-28T11:03:55;94497.97;;;33.33;18.79
61961;BME280;47923;42.506;24.192;2022-09-28T11:06:24;94434.56;;;32.85;18.67
61961;BME280;47923;42.506;24.192;2022-09-28T11:08:52;94514.16;;;35.16;19.20
61961;BME280;47923;42.506;24.192;2022-09-28T11:11:19;94388.47;;;34.01;18.47
61961;BME280;47923;42.506;24.192;2022-09-28T11:13:50;94471.00;;;34.00;18.48
61961;BME280;47923;42.506;24.192;2022-09-28T11:16:24;94502.78;;;33.70;18.44
61961;BME280;47923;42.506;24.192;2022-09-28T11:18:50;94391.22;;;31.61;20.54
61961;BME280;47923;42.506;24.192;2022-09-28T11:21:27;94097.09;;;28.83;20.96
61961;BME280;47923;42.506;24.192;2022-09-28T11:26:22;94224.72;;;28.36;22.44
61961;BME280;47923;42.506;24.192;2022-09-28T11:28:52;94482.28;;;29.40;23.07
61961;BME280;47923;42.506;24.192;2022-09-28T11:31:24;94341.84;;;28.40;23.37
61961;BME280;47923;42.506;24.192;2022-09-28T11:33:50;94495.22;;;29.77;23.38
61961;BME280;47923;42.506;24.192;2022-09-28T11:44:42;94172.59;;;26.67;24.88
61961;BME280;47923;42.506;24.192;2022-09-28T11:58:34;94498.19;;;27.14;27.45
61961;BME280;47923;42.506;24.192;2022-09-28T12:03:34;94462.47;;;26.50;28.98
61961;BME280;47923;42.506;24.192;2022-09-28T12:06:05;94401.22;;;26.42;28.50
61961;BME280;47923;42.506;24.192;2022-09-28T12:08:40;94436.28;;;26.97;27.87
61961;BME280;47923;42.506;24.192;2022-09-28T12:11:37;94279.88;;;25.53;27.72
61961;BME280;47923;42.506;24.192;2022-09-28T12:14:18;94507.66;;;27.28;27.77
61961;BME280;47923;42.506;24.192;2022-09-28T12:17:00;94306.91;;;26.05;27.52
61961;BME280;47923;42.506;24.192;2022-09-28T12:22:23;93925.19;;;23.17;27.61
61961;BME280;47923;42.506;24.192;2022-09-28T12:24:54;94243.88;;;24.92;28.61
61961;BME280;47923;42.506;24.192;2022-09-28T12:32:59;94477.78;;;25.89;30.06
61961;BME280;47923;42.506;24.192;2022-09-28T12:54:52;94471.53;;;25.59;30.88
61961;BME280;47923;42.506;24.192;2022-09-28T13:00:19;94495.38;;;25.72;30.41
61961;BME280;47923;42.506;24.192;2022-09-28T13:06:04;94467.91;;;25.39;30.30
61961;BME280;47923;42.506;24.192;2022-09-28T13:25:26;94385.59;;;24.39;30.91
61961;BME280;47923;42.506;24.192;2022-09-28T13:28:05;94354.91;;;24.37;31.01
61961;BME280;47923;42.506;24.192;2022-09-28T13:30:34;94442.88;;;25.27;30.50
61961;BME280;47923;42.506;24.192;2022-09-28T13:33:03;94238.59;;;24.00;30.71
61961;BME280;47923;42.506;24.192;2022-09-28T13:35:30;94476.13;;;25.33;30.84
61961;BME280;47923;42.506;24.192;2022-09-28T14:02:52;94435.91;;;25.02;30.40
61961;BME280;47923;42.506;24.192;2022-09-28T14:05:44;94472.88;;;24.90;30.81
61961;BME280;47923;42.506;24.192;2022-09-28T14:08:26;94474.75;;;24.84;32.04
61961;BME280;47923;42.506;24.192;2022-09-28T14:10:54;94472.53;;;24.73;31.40
61961;BME280;47923;42.506;24.192;2022-09-28T14:16:37;94459.38;;;24.53;32.07
61961;BME280;47923;42.506;24.192;2022-09-28T14:19:27;94480.66;;;24.77;31.78
61961;BME280;47923;42.506;24.192;2022-09-28T14:30:24;94479.72;;;24.95;31.83
61961;BME280;47923;42.506;24.192;2022-09-28T14:32:56;94297.34;;;23.53;32.57
61961;BME280;47923;42.506;24.192;2022-09-28T14:35:38;94241.81;;;23.21;32.77
61961;BME280;47923;42.506;24.192;2022-09-28T14:38:14;94218.03;;;23.09;32.76
61961;BME280;47923;42.506;24.192;2022-09-28T14:41:00;94196.19;;;22.72;33.62
61961;BME280;47923;42.506;24.192;2022-09-28T14:48:48;94495.13;;;24.72;34.79
61961;BME280;47923;42.506;24.192;2022-09-28T14:56:45;94497.91;;;24.48;34.99
61961;BME280;47923;42.506;24.192;2022-09-28T14:59:16;94494.19;;;24.27;37.21
61961;BME280;47923;42.506;24.192;2022-09-28T15:01:45;94393.25;;;23.39;37.74
61961;BME280;47923;42.506;24.192;2022-09-28T15:04:13;94377.31;;;23.10;39.37
61961;BME280;47923;42.506;24.192;2022-09-28T15:06:50;94410.88;;;23.33;39.35
61961;BME280;47923;42.506;24.192;2022-09-28T15:09:28;94505.59;;;23.87;39.97
61961;BME280;47923;42.506;24.192;2022-09-28T15:12:01;94470.19;;;23.61;39.51
61961;BME280;47923;42.506;24.192;2022-09-28T15:14:39;93856.81;;;19.06;39.63
61961;BME280;47923;42.506;24.192;2022-09-28T15:17:08;94116.41;;;21.09;41.10
61961;BME280;47923;42.506;24.192;2022-09-28T15:19:51;94479.44;;;23.40;40.70
61961;BME280;47923;42.506;24.192;2022-09-28T15:22:20;94483.53;;;23.02;40.62
61961;BME280;47923;42.506;24.192;2022-09-28T15:24:54;94383.88;;;22.25;42.73
61961;BME280;47923;42.506;24.192;2022-09-28T15:27:20;94373.63;;;22.07;43.05
61961;BME280;47923;42.506;24.192;2022-09-28T15:30:01;94152.09;;;20.41;43.47
61961;BME280;47923;42.506;24.192;2022-09-28T15:32:28;94512.63;;;22.48;44.06
61961;BME280;47923;42.506;24.192;2022-09-28T15:34:55;94486.13;;;22.14;44.31
61961;BME280;47923;42.506;24.192;2022-09-28T15:37:34;94486.66;;;21.91;45.40
61961;BME280;47923;42.506;24.192;2022-09-28T15:40:01;94087.28;;;19.01;46.22
61961;BME280;47923;42.506;24.192;2022-09-28T15:42:34;94211.34;;;19.32;47.25
61961;BME280;47923;42.506;24.192;2022-09-28T15:45:20;94548.78;;;21.39;47.16
61961;BME280;47923;42.506;24.192;2022-09-28T15:47:50;94525.44;;;21.21;49.08
61961;BME280;47923;42.506;24.192;2022-09-28T15:50:29;94322.03;;;19.57;49.92
61961;BME280;47923;42.506;24.192;2022-09-28T15:52:59;94514.88;;;20.67;48.75
61961;BME280;47923;42.506;24.192;2022-09-28T15:55:31;94533.50;;;20.72;50.37
61961;BME280;47923;42.506;24.192;2022-09-28T16:00:32;94527.69;;;20.35;52.08
61961;BME280;47923;42.506;24.192;2022-09-28T16:05:38;94505.09;;;19.84;52.59
61961;BME280;47923;42.506;24.192;2022-09-28T16:08:13;94279.44;;;17.90;53.48
61961;BME280;47923;42.506;24.192;2022-09-28T16:13:58;94435.88;;;18.65;53.41
61961;BME280;47923;42.506;24.192;2022-09-28T16:16:44;94346.63;;;18.17;54.65
61961;BME280;47923;42.506;24.192;2022-09-28T16:19:26;94428.31;;;18.57;54.92
61961;BME280;47923;42.506;24.192;2022-09-28T16:21:57;94099.88;;;16.37;54.57
61961;BME280;47923;42.506;24.192;2022-09-28T16:24:53;94544.19;;;19.33;56.28
61961;BME280;47923;42.506;24.192;2022-09-28T16:27:27;94550.19;;;19.28;55.59
61961;BME280;47923;42.506;24.192;2022-09-28T16:32:50;94395.72;;;18.20;55.62
61961;BME280;47923;42.506;24.192;2022-09-28T16:37:44;94373.06;;;18.07;55.79
61961;BME280;47923;42.506;24.192;2022-09-28T16:40:12;94412.38;;;18.26;55.52
61961;BME280;47923;42.506;24.192;2022-09-28T16:42:43;94535.34;;;18.88;55.70
61961;BME280;47923;42.506;24.192;2022-09-28T16:45:17;94501.06;;;18.83;56.32
61961;BME280;47923;42.506;24.192;2022-09-28T16:47:44;94407.28;;;18.12;56.28
61961;BME280;47923;42.506;24.192;2022-09-28T16:50:13;94311.91;;;17.43;56.16
61961;BME280;47923;42.506;24.192;2022-09-28T16:52:40;94535.13;;;18.95;56.85